createdAt,value
2023-07-31T00:02:12.299Z,17.55
2023-07-31T00:04:40.220Z,17.54
2023-07-31T00:07:09.560Z,17.59
2023-07-31T00:09:37.562Z,17.63
2023-07-31T00:12:06.329Z,17.60
2023-07-31T00:14:34.265Z,17.58
2023-07-31T00:17:02.111Z,17.55
2023-07-31T00:19:30.050Z,17.57
2023-07-31T00:21:57.925Z,17.60
2023-07-31T00:24:27.412Z,17.68
2023-07-31T00:26:55.491Z,17.64
2023-07-31T00:29:23.383Z,17.72
2023-07-31T00:31:51.394Z,17.70
2023-07-31T00:34:19.446Z,17.72
2023-07-31T00:36:47.362Z,17.75
2023-07-31T00:39:15.251Z,17.79
2023-07-31T00:41:44.556Z,17.81
2023-07-31T00:44:12.453Z,17.84
2023-07-31T00:46:40.832Z,17.82
2023-07-31T00:49:09.829Z,17.90
2023-07-31T00:51:37.800Z,17.87
2023-07-31T00:54:06.352Z,17.91
2023-07-31T00:56:35.040Z,17.85
2023-07-31T00:59:04.373Z,17.84
2023-07-31T01:01:32.324Z,17.82
2023-07-31T01:04:00.500Z,17.80
2023-07-31T01:06:38.980Z,17.80
2023-07-31T01:09:14.365Z,17.81
2023-07-31T01:11:49.595Z,17.80
2023-07-31T01:14:18.937Z,17.78
2023-07-31T01:16:46.909Z,17.82
2023-07-31T01:19:17.271Z,17.73
2023-07-31T01:22:01.489Z,17.80
2023-07-31T01:24:38.191Z,17.82
2023-07-31T01:27:11.837Z,17.74
2023-07-31T01:29:45.405Z,17.72
2023-07-31T01:32:15.192Z,17.72
2023-07-31T01:34:44.645Z,17.64
2023-07-31T01:37:12.825Z,17.68
2023-07-31T01:39:40.860Z,17.65
2023-07-31T01:42:10.384Z,17.72
2023-07-31T01:44:38.299Z,17.69
2023-07-31T01:47:06.904Z,17.71
2023-07-31T01:49:34.811Z,17.70
2023-07-31T01:52:02.784Z,17.76
2023-07-31T01:54:30.942Z,17.79
2023-07-31T01:56:58.880Z,17.78
2023-07-31T01:59:28.244Z,17.74
2023-07-31T02:01:56.300Z,17.76
2023-07-31T02:04:24.393Z,17.89
2023-07-31T02:06:52.257Z,17.93
2023-07-31T02:09:20.214Z,17.95
2023-07-31T02:11:48.197Z,18.02
2023-07-31T02:14:16.197Z,18.08
2023-07-31T02:16:45.519Z,18.08
2023-07-31T02:19:13.484Z,18.13
2023-07-31T02:21:41.411Z,18.24
2023-07-31T02:24:09.464Z,18.15
2023-07-31T02:26:37.711Z,18.16
2023-07-31T02:29:05.782Z,18.24
2023-07-31T02:31:33.948Z,18.21
2023-07-31T02:34:03.272Z,18.13
2023-07-31T02:36:31.191Z,18.22
2023-07-31T02:38:59.156Z,18.26
2023-07-31T02:41:27.064Z,18.26
2023-07-31T02:43:55.042Z,18.19
2023-07-31T02:46:25.641Z,18.05
2023-07-31T02:48:53.762Z,18.09
2023-07-31T02:51:23.315Z,18.04
2023-07-31T02:53:51.695Z,18.06
2023-07-31T02:56:19.852Z,18.05
2023-07-31T02:58:47.820Z,18.03
2023-07-31T03:01:15.800Z,17.93
2023-07-31T03:03:44.296Z,17.84
2023-07-31T03:06:12.302Z,17.86
2023-07-31T03:08:41.677Z,17.97
2023-07-31T03:11:09.684Z,18.00
2023-07-31T03:13:37.541Z,17.95
2023-07-31T03:16:06.029Z,18.02
2023-07-31T03:18:33.942Z,18.09
2023-07-31T03:21:01.882Z,18.04
2023-07-31T03:23:29.854Z,18.06
2023-07-31T03:25:59.919Z,18.06
2023-07-31T03:28:27.935Z,18.08
2023-07-31T03:30:55.923Z,18.14
2023-07-31T03:33:23.984Z,18.00
2023-07-31T03:35:51.950Z,18.10
2023-07-31T03:38:20.329Z,18.02
2023-07-31T03:40:48.275Z,18.11
2023-07-31T03:43:18.071Z,17.97
2023-07-31T03:45:46.079Z,18.07
2023-07-31T03:48:16.410Z,18.05
2023-07-31T03:50:44.469Z,18.10
2023-07-31T03:53:13.072Z,18.07
2023-07-31T03:55:40.934Z,18.10
2023-07-31T03:58:08.766Z,18.17
2023-07-31T04:00:38.211Z,18.12
2023-07-31T04:03:06.277Z,18.27
2023-07-31T04:05:34.976Z,18.22
2023-07-31T04:08:03.019Z,18.19
2023-07-31T04:10:32.403Z,18.17
2023-07-31T04:13:00.290Z,18.11
2023-07-31T04:15:28.222Z,18.02
2023-07-31T04:17:57.666Z,18.14
2023-07-31T04:20:25.687Z,18.23
2023-07-31T04:22:53.651Z,18.29
2023-07-31T04:25:21.540Z,18.14
2023-07-31T04:27:49.471Z,18.13
2023-07-31T04:30:17.586Z,18.12
2023-07-31T04:32:45.500Z,18.02
2023-07-31T04:35:14.741Z,18.13
2023-07-31T04:37:42.764Z,18.04
2023-07-31T04:40:11.292Z,18.06
2023-07-31T04:42:39.191Z,18.11
2023-07-31T04:45:08.094Z,18.05
2023-07-31T04:47:36.002Z,18.07
2023-07-31T04:50:03.945Z,18.11
2023-07-31T04:52:33.257Z,18.14
2023-07-31T04:55:01.128Z,18.20
2023-07-31T04:57:29.044Z,18.11
2023-07-31T04:59:56.956Z,18.19
2023-07-31T05:02:25.804Z,18.30
2023-07-31T05:04:53.783Z,18.30
2023-07-31T05:07:21.828Z,18.29
2023-07-31T05:09:51.052Z,18.35
2023-07-31T05:12:18.933Z,18.41
2023-07-31T05:14:46.914Z,18.19
2023-07-31T05:17:14.780Z,18.10
2023-07-31T05:19:43.061Z,18.06
2023-07-31T05:22:11.048Z,18.07
2023-07-31T05:24:38.917Z,17.98
2023-07-31T05:27:09.142Z,17.95
2023-07-31T05:29:37.140Z,17.85
2023-07-31T05:32:05.726Z,17.85
2023-07-31T05:34:33.606Z,17.88
2023-07-31T05:37:01.500Z,17.90
2023-07-31T05:39:29.546Z,17.86
2023-07-31T05:41:57.391Z,17.91
2023-07-31T05:44:26.745Z,17.94
2023-07-31T05:46:54.785Z,17.95
2023-07-31T05:49:22.683Z,18.01
2023-07-31T05:51:50.596Z,17.99
2023-07-31T05:54:18.544Z,18.03
2023-07-31T05:56:46.420Z,17.99
2023-07-31T05:59:15.415Z,17.92
2023-07-31T06:01:44.986Z,17.85
2023-07-31T06:04:13.042Z,18.02
2023-07-31T06:06:41.505Z,18.00
2023-07-31T06:09:09.618Z,18.04
2023-07-31T06:11:37.742Z,18.10
2023-07-31T06:14:05.685Z,18.21
2023-07-31T06:16:33.648Z,18.35
2023-07-31T06:19:03.090Z,18.41
2023-07-31T06:21:31.113Z,18.37
2023-07-31T06:23:59.017Z,18.37
2023-07-31T06:26:26.954Z,18.36
2023-07-31T06:28:54.924Z,18.30
2023-07-31T06:31:24.291Z,18.38
2023-07-31T06:33:53.194Z,18.42
2023-07-31T06:36:22.581Z,18.35
2023-07-31T06:38:50.426Z,18.40
2023-07-31T06:41:18.266Z,18.57
2023-07-31T06:43:46.282Z,18.51
2023-07-31T06:46:14.669Z,18.52
2023-07-31T06:48:42.653Z,18.52
2023-07-31T06:51:10.624Z,18.48
2023-07-31T06:53:39.864Z,18.53
2023-07-31T06:56:07.723Z,18.59
2023-07-31T06:58:35.673Z,18.65
2023-07-31T07:01:03.673Z,18.51
2023-07-31T07:03:31.673Z,18.66
2023-07-31T07:05:59.673Z,18.61
2023-07-31T07:08:27.726Z,18.74
2023-07-31T07:10:57.033Z,18.76
2023-07-31T07:13:24.993Z,18.73
2023-07-31T07:15:53.591Z,18.61
2023-07-31T07:18:22.040Z,18.52
2023-07-31T07:20:52.892Z,18.58
2023-07-31T07:23:21.681Z,18.69
2023-07-31T07:25:49.832Z,18.65
2023-07-31T07:28:19.182Z,18.79
2023-07-31T07:30:47.114Z,18.81
2023-07-31T07:33:15.181Z,18.58
2023-07-31T07:35:43.139Z,18.59
2023-07-31T07:38:11.004Z,18.63
2023-07-31T07:40:41.213Z,18.76
2023-07-31T07:43:09.486Z,18.85
2023-07-31T07:45:38.718Z,18.85
2023-07-31T07:48:06.855Z,18.93
2023-07-31T07:50:34.849Z,18.93
2023-07-31T07:53:02.782Z,19.02
2023-07-31T07:55:30.757Z,19.03
2023-07-31T07:57:58.661Z,19.00
2023-07-31T08:00:26.557Z,19.02
2023-07-31T08:02:55.973Z,19.06
2023-07-31T08:05:24.039Z,19.12
2023-07-31T08:07:51.971Z,19.18
2023-07-31T08:10:20.008Z,19.26
2023-07-31T08:12:47.926Z,19.33
2023-07-31T08:15:15.914Z,19.35
2023-07-31T08:17:43.882Z,19.40
2023-07-31T08:20:15.418Z,19.59
2023-07-31T08:22:43.359Z,19.67
2023-07-31T08:25:11.340Z,19.70
2023-07-31T08:27:39.302Z,19.71
2023-07-31T08:30:08.551Z,19.85
2023-07-31T08:32:36.467Z,19.95
2023-07-31T08:35:04.807Z,20.16
2023-07-31T08:37:34.052Z,20.29
2023-07-31T08:40:02.140Z,20.08
2023-07-31T08:42:31.902Z,20.22
2023-07-31T08:45:01.705Z,20.38
2023-07-31T08:47:30.462Z,20.48
2023-07-31T08:49:59.728Z,20.48
2023-07-31T08:52:27.779Z,20.32
2023-07-31T08:54:57.088Z,20.41
2023-07-31T08:57:25.579Z,20.43
2023-07-31T08:59:54.719Z,20.39
2023-07-31T09:02:24.087Z,20.33
2023-07-31T09:04:52.098Z,20.31
2023-07-31T09:07:20.560Z,20.37
2023-07-31T09:09:48.629Z,20.60
2023-07-31T09:12:18.455Z,20.41
2023-07-31T09:14:48.863Z,20.52
2023-07-31T09:17:16.800Z,20.43
2023-07-31T09:19:44.731Z,20.21
2023-07-31T09:22:12.726Z,20.31
2023-07-31T09:24:40.608Z,20.41
2023-07-31T09:27:08.765Z,20.53
2023-07-31T09:29:38.034Z,20.57
2023-07-31T09:32:06.440Z,20.53
2023-07-31T09:34:40.195Z,20.62
2023-07-31T09:37:08.158Z,20.44
2023-07-31T09:39:48.470Z,20.45
2023-07-31T09:42:16.452Z,20.48
2023-07-31T09:44:45.698Z,20.55
2023-07-31T09:47:26.216Z,20.64
2023-07-31T09:49:54.548Z,20.61
2023-07-31T09:52:22.481Z,20.63
2023-07-31T09:54:50.595Z,20.60
2023-07-31T09:57:20.624Z,20.66
2023-07-31T09:59:51.241Z,20.68
2023-07-31T10:02:23.955Z,20.66
2023-07-31T10:04:53.080Z,20.73
2023-07-31T10:07:25.525Z,20.76
2023-07-31T10:09:54.732Z,20.74
2023-07-31T10:12:27.789Z,20.70
2023-07-31T10:14:57.821Z,20.72
2023-07-31T10:17:26.995Z,20.78
2023-07-31T10:19:55.640Z,20.83
2023-07-31T10:22:23.604Z,20.67
2023-07-31T10:24:54.061Z,20.74
2023-07-31T10:27:21.943Z,20.68
2023-07-31T10:29:50.828Z,20.73
2023-07-31T10:32:21.804Z,20.91
2023-07-31T10:34:51.471Z,20.90
2023-07-31T10:37:26.919Z,20.88
2023-07-31T10:39:59.464Z,20.85
2023-07-31T10:42:31.553Z,20.74
2023-07-31T10:45:01.446Z,20.61
2023-07-31T10:47:30.794Z,20.69
2023-07-31T10:50:21.042Z,20.71
2023-07-31T10:52:50.484Z,20.61
2023-07-31T10:55:27.471Z,20.44
2023-07-31T10:57:56.203Z,20.30
2023-07-31T11:00:27.240Z,20.25
2023-07-31T11:03:04.843Z,20.22
2023-07-31T11:06:04.451Z,20.20
2023-07-31T11:08:34.295Z,20.16
2023-07-31T11:11:09.933Z,20.19
2023-07-31T11:13:43.234Z,20.23
2023-07-31T11:16:11.229Z,20.35
2023-07-31T11:18:42.845Z,20.50
2023-07-31T11:21:13.882Z,20.60
2023-07-31T11:23:41.855Z,20.65
2023-07-31T11:26:10.236Z,20.56
2023-07-31T11:28:38.400Z,20.58
2023-07-31T11:31:07.087Z,20.64
2023-07-31T11:33:34.981Z,20.71
2023-07-31T11:36:04.392Z,20.81
2023-07-31T11:38:33.987Z,20.64
2023-07-31T11:41:03.963Z,20.79
2023-07-31T11:43:33.383Z,20.62
2023-07-31T11:46:04.369Z,20.45
2023-07-31T11:48:35.673Z,20.30
2023-07-31T11:51:07.053Z,20.14
2023-07-31T11:53:40.378Z,20.08
2023-07-31T11:56:09.831Z,19.92
2023-07-31T11:58:38.892Z,19.89
2023-07-31T12:01:07.660Z,19.91
2023-07-31T12:03:36.757Z,19.82
2023-07-31T12:06:05.993Z,19.69
2023-07-31T12:08:33.979Z,19.74
2023-07-31T12:11:06.249Z,19.88
2023-07-31T12:13:36.652Z,19.95
2023-07-31T12:16:06.410Z,19.90
2023-07-31T12:18:36.757Z,20.04
2023-07-31T12:21:07.576Z,19.94
2023-07-31T12:23:37.327Z,20.11
2023-07-31T12:26:06.402Z,20.07
2023-07-31T12:28:38.127Z,20.06
2023-07-31T12:31:06.925Z,19.98
2023-07-31T12:33:36.110Z,19.86
2023-07-31T12:36:08.804Z,19.90
2023-07-31T12:38:37.014Z,20.11
2023-07-31T12:41:05.115Z,20.05
2023-07-31T12:43:33.266Z,20.16
2023-07-31T12:46:01.532Z,20.06
2023-07-31T12:48:29.430Z,20.07
2023-07-31T12:50:57.299Z,19.95
2023-07-31T12:53:26.630Z,20.07
2023-07-31T12:55:54.662Z,19.94
2023-07-31T12:58:22.627Z,20.03
2023-07-31T13:00:50.481Z,20.17
2023-07-31T13:03:18.389Z,20.15
2023-07-31T13:05:46.512Z,20.04
2023-07-31T13:08:16.700Z,19.95
2023-07-31T13:10:46.060Z,20.06
2023-07-31T13:13:14.059Z,20.17
2023-07-31T13:15:42.008Z,20.20
2023-07-31T13:18:09.925Z,20.29
2023-07-31T13:20:37.892Z,20.12
2023-07-31T13:23:05.770Z,19.98
2023-07-31T13:25:33.948Z,20.03
2023-07-31T13:28:04.166Z,19.90
2023-07-31T13:30:32.330Z,19.79
2023-07-31T13:33:00.223Z,19.76
2023-07-31T13:35:28.135Z,19.81
2023-07-31T13:37:55.993Z,19.86
2023-07-31T13:40:24.274Z,19.81
2023-07-31T13:42:52.200Z,19.86
2023-07-31T13:45:21.565Z,19.79
2023-07-31T13:47:49.510Z,19.73
2023-07-31T13:50:17.994Z,19.83
2023-07-31T13:52:45.938Z,19.85
2023-07-31T13:55:14.031Z,19.76
2023-07-31T13:57:41.966Z,19.60
2023-07-31T14:00:10.814Z,19.58
2023-07-31T14:02:40.225Z,19.69
2023-07-31T14:05:10.690Z,19.77
2023-07-31T14:07:38.681Z,19.82
2023-07-31T14:10:07.236Z,19.78
2023-07-31T14:12:42.531Z,19.75
2023-07-31T14:15:11.745Z,19.77
2023-07-31T14:17:41.501Z,19.81
2023-07-31T14:20:11.331Z,19.73
2023-07-31T14:22:39.442Z,19.73
2023-07-31T14:25:07.998Z,19.68
2023-07-31T14:27:35.910Z,19.68
2023-07-31T14:30:04.047Z,19.71
2023-07-31T14:32:31.957Z,19.69
2023-07-31T14:35:01.218Z,19.72
2023-07-31T14:37:38.388Z,19.63
2023-07-31T14:40:07.591Z,19.56
2023-07-31T14:42:35.818Z,19.60
2023-07-31T14:45:03.965Z,19.46
2023-07-31T14:47:33.220Z,19.34
2023-07-31T14:50:03.187Z,19.32
2023-07-31T14:52:31.490Z,19.48
2023-07-31T14:54:59.409Z,19.64
2023-07-31T14:57:27.683Z,19.74
2023-07-31T14:59:55.983Z,19.80
2023-07-31T15:02:23.973Z,19.98
2023-07-31T15:04:51.924Z,20.04
2023-07-31T15:07:21.242Z,20.13
2023-07-31T15:09:49.153Z,20.27
2023-07-31T15:12:17.027Z,20.26
2023-07-31T15:14:45.017Z,20.20
2023-07-31T15:17:12.974Z,20.16
2023-07-31T15:19:40.801Z,20.14
2023-07-31T15:22:09.022Z,20.22
2023-07-31T15:24:39.568Z,20.34
2023-07-31T15:27:09.605Z,20.36
2023-07-31T15:29:38.448Z,20.25
2023-07-31T15:32:07.579Z,20.24
2023-07-31T15:34:35.649Z,20.26
2023-07-31T15:37:04.953Z,20.30
2023-07-31T15:39:33.162Z,20.48
2023-07-31T15:42:02.481Z,20.49
2023-07-31T15:44:30.364Z,20.44
2023-07-31T15:46:58.465Z,20.40
2023-07-31T15:49:26.383Z,20.39
2023-07-31T15:51:54.345Z,20.42
2023-07-31T15:54:22.203Z,20.23
2023-07-31T15:56:50.219Z,20.29
2023-07-31T15:59:19.455Z,20.16
2023-07-31T16:01:47.476Z,20.12
2023-07-31T16:04:17.016Z,20.11
2023-07-31T16:06:44.981Z,20.00
2023-07-31T16:09:13.004Z,20.10
2023-07-31T16:11:41.178Z,20.14
2023-07-31T16:14:10.840Z,20.09
2023-07-31T16:16:40.487Z,20.08
2023-07-31T16:19:08.838Z,20.13
2023-07-31T16:21:38.092Z,20.15
2023-07-31T16:24:06.595Z,20.11
2023-07-31T16:26:35.264Z,20.03
2023-07-31T16:29:03.266Z,20.14
2023-07-31T16:31:40.064Z,20.11
2023-07-31T16:34:16.654Z,20.14
2023-07-31T16:36:44.558Z,20.02
2023-07-31T16:39:12.411Z,20.07
2023-07-31T16:41:40.569Z,20.06
2023-07-31T16:44:08.782Z,20.08
2023-07-31T16:46:36.646Z,20.09
2023-07-31T16:49:05.115Z,20.09
2023-07-31T16:51:34.826Z,20.11
2023-07-31T16:54:02.746Z,20.12
2023-07-31T16:56:32.915Z,20.08
2023-07-31T16:59:04.578Z,19.98
2023-07-31T17:01:33.607Z,20.05
2023-07-31T17:04:02.239Z,20.13
2023-07-31T17:06:30.617Z,20.10
2023-07-31T17:08:59.911Z,20.21
2023-07-31T17:11:27.784Z,20.27
2023-07-31T17:13:55.601Z,20.29
2023-07-31T17:16:24.066Z,20.29
2023-07-31T17:18:51.911Z,20.36
2023-07-31T17:21:19.799Z,20.30
2023-07-31T17:23:47.721Z,20.30
2023-07-31T17:26:16.925Z,20.42
2023-07-31T17:28:44.782Z,20.40
2023-07-31T17:31:13.888Z,20.32
2023-07-31T17:33:42.003Z,20.38
2023-07-31T17:36:10.103Z,20.41
2023-07-31T17:38:38.020Z,20.46
2023-07-31T17:41:05.945Z,20.52
2023-07-31T17:43:35.198Z,20.61
2023-07-31T17:46:04.668Z,20.56
2023-07-31T17:48:33.537Z,20.60
2023-07-31T17:51:02.575Z,20.59
2023-07-31T17:53:30.422Z,20.59
2023-07-31T17:55:58.258Z,20.59
2023-07-31T17:58:26.232Z,20.61
2023-07-31T18:00:55.961Z,20.64
2023-07-31T18:03:24.023Z,20.59
2023-07-31T18:05:52.033Z,20.59
2023-07-31T18:08:20.117Z,20.56
2023-07-31T18:10:48.741Z,20.58
2023-07-31T18:13:17.650Z,20.51
2023-07-31T18:15:46.496Z,20.48
2023-07-31T18:18:16.364Z,20.41
2023-07-31T18:20:44.243Z,20.44
2023-07-31T18:23:12.255Z,20.43
2023-07-31T18:25:42.518Z,20.39
2023-07-31T18:28:10.591Z,20.38
2023-07-31T18:30:38.524Z,20.29
2023-07-31T18:33:06.545Z,20.16
2023-07-31T18:35:40.012Z,20.05
2023-07-31T18:38:07.916Z,20.07
2023-07-31T18:40:35.815Z,20.16
2023-07-31T18:43:05.111Z,20.17
2023-07-31T18:45:34.207Z,20.16
2023-07-31T18:48:02.264Z,20.14
2023-07-31T18:50:30.172Z,20.18
2023-07-31T18:52:59.475Z,20.22
2023-07-31T18:55:27.522Z,20.27
2023-07-31T18:57:55.516Z,20.15
2023-07-31T19:00:23.494Z,19.99
2023-07-31T19:02:51.522Z,20.07
2023-07-31T19:05:19.640Z,20.19
2023-07-31T19:07:47.423Z,20.28
2023-07-31T19:10:17.629Z,20.28
2023-07-31T19:12:45.805Z,20.26
2023-07-31T19:15:13.702Z,20.24
2023-07-31T19:17:43.693Z,20.29
2023-07-31T19:20:12.322Z,20.28
2023-07-31T19:22:40.222Z,20.25
2023-07-31T19:25:08.926Z,20.27
2023-07-31T19:27:38.158Z,20.23
2023-07-31T19:30:06.820Z,20.19
2023-07-31T19:32:34.892Z,20.12
2023-07-31T19:35:03.106Z,20.18
2023-07-31T19:37:31.745Z,20.23
2023-07-31T19:39:59.636Z,20.26
2023-07-31T19:42:27.459Z,20.16
2023-07-31T19:44:56.692Z,20.19
2023-07-31T19:47:24.689Z,20.15
2023-07-31T19:49:52.599Z,20.16
2023-07-31T19:52:20.449Z,20.15
2023-07-31T19:54:48.293Z,20.06
2023-07-31T19:57:16.139Z,20.10
2023-07-31T19:59:44.708Z,20.14
2023-07-31T20:02:14.085Z,20.05
2023-07-31T20:04:41.960Z,20.08
2023-07-31T20:07:09.807Z,20.11
2023-07-31T20:09:37.749Z,20.13
2023-07-31T20:12:06.416Z,20.11
2023-07-31T20:14:34.735Z,20.11
2023-07-31T20:17:02.608Z,20.08
2023-07-31T20:19:32.157Z,20.16
2023-07-31T20:22:00.077Z,20.09
2023-07-31T20:24:27.981Z,20.13
2023-07-31T20:26:55.803Z,20.09
2023-07-31T20:29:23.646Z,20.11
2023-07-31T20:31:51.637Z,20.08
2023-07-31T20:34:19.512Z,20.05
2023-07-31T20:36:48.693Z,20.06
2023-07-31T20:39:16.586Z,20.03
2023-07-31T20:41:44.621Z,20.05
2023-07-31T20:44:12.470Z,20.09
2023-07-31T20:46:40.736Z,20.04
2023-07-31T20:49:08.998Z,20.06
2023-07-31T20:51:38.925Z,20.00
2023-07-31T20:54:08.345Z,20.02
2023-07-31T20:56:36.225Z,20.01
2023-07-31T20:59:04.135Z,20.02
2023-07-31T21:01:32.082Z,20.05
2023-07-31T21:04:00.040Z,20.02
2023-07-31T21:06:28.003Z,20.01
2023-07-31T21:08:55.935Z,20.06
2023-07-31T21:11:25.173Z,20.02
2023-07-31T21:13:53.003Z,19.97
2023-07-31T21:16:21.409Z,20.01
2023-07-31T21:18:49.339Z,19.98
2023-07-31T21:21:17.210Z,19.95
2023-07-31T21:23:45.117Z,19.97
2023-07-31T21:26:13.081Z,19.89
2023-07-31T21:28:42.333Z,19.87
2023-07-31T21:31:13.950Z,19.81
2023-07-31T21:33:42.142Z,19.84
2023-07-31T21:36:10.036Z,19.78
2023-07-31T21:38:37.956Z,19.72
2023-07-31T21:41:05.868Z,19.77
2023-07-31T21:43:33.712Z,19.79
2023-07-31T21:46:03.018Z,19.84
2023-07-31T21:48:30.880Z,19.81
2023-07-31T21:50:58.926Z,19.78
2023-07-31T21:53:26.810Z,19.80
2023-07-31T21:55:54.647Z,19.74
2023-07-31T21:58:22.468Z,19.71
2023-07-31T22:00:50.417Z,19.72
2023-07-31T22:03:19.682Z,19.66
2023-07-31T22:05:47.601Z,19.61
2023-07-31T22:08:15.488Z,19.55
2023-07-31T22:10:43.348Z,19.42
2023-07-31T22:13:11.218Z,19.37
2023-07-31T22:15:39.128Z,19.44
2023-07-31T22:18:07.048Z,19.45
2023-07-31T22:20:36.306Z,19.45
2023-07-31T22:23:04.201Z,19.39
2023-07-31T22:25:32.082Z,19.43
2023-07-31T22:28:10.911Z,19.43
2023-07-31T22:30:47.161Z,19.45
2023-07-31T22:33:15.003Z,19.49
2023-07-31T22:35:44.372Z,19.48
2023-07-31T22:38:12.288Z,19.47
2023-07-31T22:40:40.095Z,19.44
2023-07-31T22:43:07.972Z,19.42
2023-07-31T22:45:35.857Z,19.39
2023-07-31T22:48:03.756Z,19.36
2023-07-31T22:50:31.608Z,19.37
2023-07-31T22:53:01.022Z,19.42
2023-07-31T22:55:28.953Z,19.45
2023-07-31T22:57:56.805Z,19.45
2023-07-31T23:00:24.775Z,19.44
2023-07-31T23:02:52.621Z,19.41
2023-07-31T23:05:20.722Z,19.43
2023-07-31T23:07:48.696Z,19.44
2023-07-31T23:10:18.128Z,19.47
2023-07-31T23:12:46.035Z,19.33
2023-07-31T23:15:14.225Z,19.26
2023-07-31T23:17:42.153Z,19.29
2023-07-31T23:20:11.262Z,19.34
2023-07-31T23:22:39.226Z,19.34
2023-07-31T23:25:07.961Z,19.32
2023-07-31T23:27:37.233Z,19.28
2023-07-31T23:30:06.080Z,19.33
2023-07-31T23:32:34.076Z,19.31
2023-07-31T23:35:02.073Z,19.31
2023-07-31T23:37:30.102Z,19.18
2023-07-31T23:39:57.967Z,19.30
2023-07-31T23:42:26.485Z,19.35
2023-07-31T23:45:08.843Z,19.41
2023-07-31T23:47:38.718Z,19.23
2023-07-31T23:50:08.007Z,19.17
2023-07-31T23:52:36.692Z,19.24
2023-07-31T23:55:04.724Z,19.31
2023-07-31T23:57:32.700Z,19.34
